7NA9 weather

Sjule Private Airstrip
Souris, North Dakota, United States

Public forecast

Using degrees Fahrenheit for public forecast. Weather courtesy of forecast.io.

METAR (pilot weather report)

Closest report is Rolla Municipal Airport, 37.9 nm (70.1 km) E. Retrieved 2019/05/19 16:35 UTC (0 seconds ago):

K06D 191635Z AUTO 06016G23KT 10SM CLR 07/M05 A3012 RMK AO2

TAF (pilot weather forecast)

Forecast is more than 12 hours old.

Closest forecast is Minot Air Force Base, 43.6 nm (80.8 km) SW. Retrieved 2019/05/17 17:03 UTC (2 days ago):

TAF TAF KMIB 171700Z 1717/1823 09012KT 9000 -RA BKN050 QNH2995INS BECMG 1720/1721 09012G18KT 9999 NSW BKN060 QNH2988INS BECMG 1802/1803 11012G18KT 9000 -RA BKN050 QNH2986INS BECMG 1805/1806 07015G20KT 9999 NSW BKN060 QNH2988INS BECMG 1818/1819 04015G25KT 9999 BKN100 QNH2994INS TX12/1722Z TN03/1811Z